createdAt,value
2019-05-20T00:00:55.109Z,17.06
2019-05-20T00:03:27.852Z,17.04
2019-05-20T00:05:58.726Z,17.06
2019-05-20T00:08:29.476Z,17.08
2019-05-20T00:11:00.378Z,17.13
2019-05-20T00:13:31.073Z,17.10
2019-05-20T00:16:01.599Z,17.23
2019-05-20T00:18:32.449Z,17.30
2019-05-20T00:21:04.498Z,17.34
2019-05-20T00:23:35.142Z,17.44
2019-05-20T00:26:08.097Z,17.51
2019-05-20T00:28:40.254Z,17.50
2019-05-20T00:31:10.840Z,17.43
2019-05-20T00:33:41.588Z,17.44
2019-05-20T00:36:12.203Z,17.33
2019-05-20T00:38:43.032Z,17.25
2019-05-20T00:41:13.608Z,17.20
2019-05-20T00:43:44.286Z,17.25
2019-05-20T00:46:14.883Z,17.11
2019-05-20T00:48:46.594Z,17.02
2019-05-20T00:51:20.196Z,17.07
2019-05-20T00:53:50.935Z,17.01
2019-05-20T00:56:21.547Z,16.97
2019-05-20T00:58:52.059Z,16.87
2019-05-20T01:01:22.663Z,16.81
2019-05-20T01:03:54.880Z,16.73
2019-05-20T01:06:25.700Z,16.65
2019-05-20T01:08:56.278Z,16.60
2019-05-20T01:11:27.306Z,16.67
2019-05-20T01:13:58.327Z,16.64
2019-05-20T01:16:29.048Z,16.77
2019-05-20T01:18:59.797Z,16.86
2019-05-20T01:21:32.505Z,16.83
2019-05-20T01:24:03.269Z,16.83
2019-05-20T01:26:37.406Z,16.81
2019-05-20T01:29:08.061Z,16.83
2019-05-20T01:31:39.004Z,16.86
2019-05-20T01:34:10.103Z,16.96
2019-05-20T01:36:40.768Z,16.87
2019-05-20T01:39:11.596Z,16.86
2019-05-20T01:41:44.115Z,16.79
2019-05-20T01:44:18.771Z,16.75
2019-05-20T01:46:49.784Z,16.65
2019-05-20T01:49:22.314Z,16.69
2019-05-20T01:51:56.167Z,16.52
2019-05-20T01:54:29.910Z,16.53
2019-05-20T01:57:03.167Z,16.51
2019-05-20T01:59:33.876Z,16.51
2019-05-20T02:02:04.926Z,16.42
2019-05-20T02:04:36.407Z,16.39
2019-05-20T02:07:07.434Z,16.42
2019-05-20T02:09:38.454Z,16.49
2019-05-20T02:12:09.330Z,16.36
2019-05-20T02:14:50.697Z,16.42
2019-05-20T02:17:23.236Z,16.43
2019-05-20T02:19:55.497Z,16.45
2019-05-20T02:22:26.335Z,16.51
2019-05-20T02:25:00.421Z,16.63
2019-05-20T02:27:31.005Z,16.61
2019-05-20T02:30:01.720Z,16.63
2019-05-20T02:32:34.611Z,16.61
2019-05-20T02:35:09.542Z,16.60
2019-05-20T02:37:40.301Z,16.70
2019-05-20T02:40:11.973Z,16.85
2019-05-20T02:42:42.771Z,16.94
2019-05-20T02:45:18.244Z,17.09
2019-05-20T02:47:50.447Z,17.21
2019-05-20T02:50:22.561Z,17.13
2019-05-20T02:52:53.386Z,17.27
2019-05-20T02:55:26.908Z,17.25
2019-05-20T02:57:57.750Z,17.20
2019-05-20T03:00:28.398Z,17.25
2019-05-20T03:02:59.278Z,17.47
2019-05-20T03:05:29.926Z,18.43
2019-05-20T03:08:02.214Z,19.68
2019-05-20T03:10:35.835Z,20.79
2019-05-20T03:13:06.604Z,21.13
2019-05-20T03:15:39.496Z,22.39
2019-05-20T03:18:10.342Z,22.29
2019-05-20T03:20:41.057Z,23.13
2019-05-20T03:23:11.670Z,23.39
2019-05-20T03:25:42.219Z,24.27
2019-05-20T03:28:12.839Z,24.55
2019-05-20T03:30:44.337Z,24.61
2019-05-20T03:33:15.086Z,24.78
2019-05-20T03:35:47.214Z,24.31
2019-05-20T03:38:19.025Z,25.57
2019-05-20T03:40:51.925Z,25.70
2019-05-20T03:43:22.589Z,25.70
2019-05-20T03:45:53.318Z,25.34
2019-05-20T03:48:25.508Z,25.64
2019-05-20T03:50:59.246Z,25.64
2019-05-20T03:53:32.865Z,26.22
2019-05-20T03:56:03.572Z,25.90
2019-05-20T03:58:35.677Z,26.11
2019-05-20T04:01:06.250Z,26.82
2019-05-20T04:03:38.395Z,26.66
2019-05-20T04:06:09.027Z,26.00
2019-05-20T04:08:39.859Z,25.53
2019-05-20T04:11:10.445Z,26.21
2019-05-20T04:13:41.347Z,25.64
2019-05-20T04:16:13.607Z,26.29
2019-05-20T04:18:46.845Z,26.48
2019-05-20T04:21:18.112Z,26.62
2019-05-20T04:23:53.592Z,26.17
2019-05-20T04:26:26.525Z,26.38
2019-05-20T04:28:58.885Z,26.50
2019-05-20T04:31:33.498Z,26.65
2019-05-20T04:34:04.282Z,26.05
2019-05-20T04:36:36.438Z,26.86
2019-05-20T04:39:07.549Z,26.36
2019-05-20T04:41:38.167Z,27.24
2019-05-20T04:44:10.673Z,27.66
2019-05-20T04:46:48.215Z,28.06
2019-05-20T04:49:24.930Z,27.19
2019-05-20T04:51:55.717Z,26.92
2019-05-20T04:54:34.203Z,27.70
2019-05-20T04:57:06.538Z,27.55
2019-05-20T04:59:40.284Z,27.75
2019-05-20T05:02:10.906Z,26.51
2019-05-20T05:04:43.075Z,26.40
2019-05-20T05:07:13.832Z,26.48
2019-05-20T05:09:44.635Z,27.48
2019-05-20T05:12:16.999Z,27.38
2019-05-20T05:14:48.126Z,27.14
2019-05-20T05:17:18.907Z,26.36
2019-05-20T05:19:49.664Z,27.59
2019-05-20T05:22:20.472Z,28.00
2019-05-20T05:24:51.089Z,28.42
2019-05-20T05:27:23.080Z,29.00
2019-05-20T05:29:53.687Z,28.28
2019-05-20T05:32:43.913Z,28.83
2019-05-20T05:35:17.565Z,28.14
2019-05-20T05:37:48.658Z,29.10
2019-05-20T05:40:21.846Z,27.78
2019-05-20T05:42:53.073Z,28.37
2019-05-20T05:45:32.011Z,27.85
2019-05-20T05:48:03.462Z,28.74
2019-05-20T05:50:36.399Z,28.32
2019-05-20T05:53:06.988Z,27.88
2019-05-20T05:55:39.257Z,28.19
2019-05-20T05:58:09.892Z,28.42
2019-05-20T06:00:40.525Z,27.99
2019-05-20T06:03:13.331Z,27.89
2019-05-20T06:05:43.626Z,28.06
2019-05-20T06:08:15.390Z,27.02
2019-05-20T06:10:47.019Z,27.03
2019-05-20T06:13:19.195Z,26.63
2019-05-20T06:15:49.799Z,26.28
2019-05-20T06:18:20.404Z,27.55
2019-05-20T06:20:51.155Z,27.41
2019-05-20T06:23:21.847Z,27.74
2019-05-20T06:25:52.986Z,27.43
2019-05-20T06:28:23.608Z,28.33
2019-05-20T06:30:54.201Z,28.29
2019-05-20T06:33:25.455Z,27.87
2019-05-20T06:35:56.784Z,28.44
2019-05-20T06:38:35.464Z,27.52
2019-05-20T06:41:09.372Z,28.19
2019-05-20T06:43:41.703Z,26.60
2019-05-20T06:46:12.325Z,27.41
2019-05-20T06:48:42.930Z,27.24
2019-05-20T06:51:14.929Z,26.39
2019-05-20T06:53:47.212Z,26.70
2019-05-20T06:56:20.243Z,25.96
2019-05-20T06:58:52.326Z,25.36
2019-05-20T07:01:23.097Z,25.48
2019-05-20T07:03:53.919Z,24.89
2019-05-20T07:06:25.002Z,24.99
2019-05-20T07:08:55.677Z,24.57
2019-05-20T07:11:26.263Z,24.46
2019-05-20T07:13:56.961Z,24.44
2019-05-20T07:16:27.675Z,24.54
2019-05-20T07:18:58.333Z,25.06
2019-05-20T07:21:28.998Z,25.06
2019-05-20T07:23:59.578Z,25.08
2019-05-20T07:26:30.163Z,25.47
2019-05-20T07:29:00.880Z,25.37
2019-05-20T07:31:31.495Z,24.92
2019-05-20T07:34:02.205Z,25.06
2019-05-20T07:36:32.920Z,25.12
2019-05-20T07:39:04.190Z,24.96
2019-05-20T07:41:34.864Z,24.98
2019-05-20T07:44:05.754Z,24.98
2019-05-20T07:46:36.507Z,24.98
2019-05-20T07:49:07.732Z,25.28
2019-05-20T07:51:40.286Z,25.60
2019-05-20T07:54:11.598Z,25.78
2019-05-20T07:56:45.391Z,25.80
2019-05-20T07:59:18.123Z,26.10
2019-05-20T08:01:48.865Z,26.06
2019-05-20T08:04:19.501Z,25.88
2019-05-20T08:06:50.170Z,25.85
2019-05-20T08:09:20.913Z,25.77
2019-05-20T08:11:51.800Z,25.72
2019-05-20T08:14:25.189Z,25.56
2019-05-20T08:16:55.894Z,25.31
2019-05-20T08:19:26.486Z,25.25
2019-05-20T08:22:00.217Z,25.35
2019-05-20T08:24:30.959Z,25.34
2019-05-20T08:27:01.578Z,25.25
2019-05-20T08:29:32.203Z,25.13
2019-05-20T08:32:02.832Z,25.34
2019-05-20T08:34:33.854Z,25.21
2019-05-20T08:37:07.751Z,25.23
2019-05-20T08:39:42.776Z,25.17
2019-05-20T08:42:15.984Z,25.29
2019-05-20T08:44:49.301Z,25.45
2019-05-20T08:47:20.016Z,25.14
2019-05-20T08:49:50.863Z,25.33
2019-05-20T08:52:24.095Z,25.38
2019-05-20T08:55:00.230Z,25.49
2019-05-20T08:57:30.882Z,25.61
2019-05-20T09:00:01.632Z,25.89
2019-05-20T09:02:32.513Z,25.98
2019-05-20T09:05:03.114Z,26.16
2019-05-20T09:07:37.823Z,26.17
2019-05-20T09:10:09.312Z,26.05
2019-05-20T09:12:39.951Z,25.91
2019-05-20T09:15:11.233Z,25.45
2019-05-20T09:17:41.860Z,25.02
2019-05-20T09:20:13.273Z,24.97
2019-05-20T09:22:43.904Z,24.97
2019-05-20T09:25:18.896Z,25.24
2019-05-20T09:27:49.591Z,25.36
2019-05-20T09:30:20.282Z,25.69
2019-05-20T09:32:51.117Z,25.55
2019-05-20T09:35:21.860Z,25.49
2019-05-20T09:37:52.534Z,25.38
2019-05-20T09:40:44.423Z,25.51
2019-05-20T09:43:15.129Z,25.37
2019-05-20T09:45:46.233Z,25.39
2019-05-20T09:48:19.513Z,25.54
2019-05-20T09:50:50.351Z,25.50
2019-05-20T09:53:21.112Z,25.69
2019-05-20T09:55:53.094Z,25.59
2019-05-20T09:58:24.103Z,25.61
2019-05-20T10:00:54.741Z,25.51
2019-05-20T10:03:25.452Z,25.71
2019-05-20T10:05:59.105Z,25.78
2019-05-20T10:08:39.028Z,25.83
2019-05-20T10:11:03.689Z,25.65
2019-05-20T10:13:34.562Z,25.53
2019-05-20T10:16:05.185Z,25.52
2019-05-20T10:18:39.462Z,25.76
2019-05-20T10:21:11.940Z,25.95
2019-05-20T10:23:42.659Z,25.66
2019-05-20T10:26:17.533Z,25.62
2019-05-20T10:28:48.155Z,25.61
2019-05-20T10:31:20.299Z,25.70
2019-05-20T10:33:51.533Z,25.94
2019-05-20T10:36:22.224Z,25.86
2019-05-20T10:38:59.051Z,25.77
2019-05-20T10:41:29.217Z,25.70
2019-05-20T10:43:59.651Z,25.71
2019-05-20T10:46:31.818Z,25.83
2019-05-20T10:49:02.552Z,25.69
2019-05-20T10:51:33.331Z,25.72
2019-05-20T10:54:04.015Z,25.95
2019-05-20T10:56:34.718Z,26.09
2019-05-20T10:59:05.367Z,26.13
2019-05-20T11:01:36.044Z,26.08
2019-05-20T11:04:08.251Z,25.97
2019-05-20T11:06:39.146Z,25.99
2019-05-20T11:09:14.090Z,25.95
2019-05-20T11:11:46.613Z,26.05
2019-05-20T11:14:17.331Z,26.10
2019-05-20T11:16:47.935Z,26.00
2019-05-20T11:19:18.618Z,26.08
2019-05-20T11:21:51.703Z,26.25
2019-05-20T11:24:22.453Z,26.02
2019-05-20T11:26:54.850Z,25.98
2019-05-20T11:29:25.511Z,26.16
2019-05-20T11:31:56.298Z,26.36
2019-05-20T11:34:26.997Z,26.47
2019-05-20T11:37:01.683Z,26.44
2019-05-20T11:39:34.237Z,26.40
2019-05-20T11:42:06.831Z,26.35
2019-05-20T11:44:48.460Z,26.40
2019-05-20T11:47:21.963Z,26.28
2019-05-20T11:49:52.591Z,26.13
2019-05-20T11:52:23.207Z,26.27
2019-05-20T11:54:55.535Z,26.36
2019-05-20T11:57:26.321Z,26.53
2019-05-20T11:59:56.991Z,26.38
2019-05-20T12:02:27.948Z,26.10
2019-05-20T12:04:58.633Z,26.18
2019-05-20T12:07:31.221Z,26.22
2019-05-20T12:10:01.846Z,26.35
2019-05-20T12:12:32.707Z,26.44
2019-05-20T12:15:05.504Z,26.31
2019-05-20T12:17:36.897Z,26.35
2019-05-20T12:20:11.826Z,26.51
2019-05-20T12:22:41.592Z,26.56
2019-05-20T12:25:15.620Z,26.54
2019-05-20T12:27:46.203Z,26.54
2019-05-20T12:30:19.708Z,26.48
2019-05-20T12:32:50.331Z,26.35
2019-05-20T12:35:20.981Z,26.22
2019-05-20T12:37:51.583Z,26.14
2019-05-20T12:40:22.900Z,26.24
2019-05-20T12:42:53.527Z,26.32
2019-05-20T12:45:25.756Z,26.30
2019-05-20T12:47:58.088Z,26.36
2019-05-20T12:50:28.778Z,26.45
2019-05-20T12:52:59.352Z,26.42
2019-05-20T12:55:29.991Z,26.31
2019-05-20T12:58:00.792Z,26.18
2019-05-20T13:00:31.398Z,26.27
2019-05-20T13:03:02.284Z,26.30
2019-05-20T13:05:32.903Z,26.35
2019-05-20T13:08:06.828Z,26.36
2019-05-20T13:10:37.572Z,26.54
2019-05-20T13:13:09.769Z,26.40
2019-05-20T13:15:40.371Z,26.28
2019-05-20T13:18:11.270Z,26.10
2019-05-20T13:20:42.000Z,26.13
2019-05-20T13:23:14.942Z,26.19
2019-05-20T13:25:46.734Z,26.17
2019-05-20T13:28:20.514Z,26.29
2019-05-20T13:30:51.274Z,26.17
2019-05-20T13:33:22.359Z,26.28
2019-05-20T13:35:54.661Z,26.11
2019-05-20T13:38:25.242Z,26.13
2019-05-20T13:40:55.885Z,26.25
2019-05-20T13:43:26.608Z,26.18
2019-05-20T13:45:59.214Z,26.09
2019-05-20T13:48:29.866Z,26.18
2019-05-20T13:51:01.089Z,25.99
2019-05-20T13:53:32.719Z,25.94
2019-05-20T13:56:05.605Z,25.93
2019-05-20T13:58:35.716Z,25.95
2019-05-20T14:01:09.711Z,25.90
2019-05-20T14:03:50.723Z,25.97
2019-05-20T14:06:21.618Z,26.01
2019-05-20T14:08:52.416Z,25.93
2019-05-20T14:11:34.194Z,25.96
2019-05-20T14:13:57.055Z,25.93
2019-05-20T14:16:30.330Z,25.87
2019-05-20T14:19:01.018Z,25.95
2019-05-20T14:21:33.270Z,26.01
2019-05-20T14:24:05.234Z,25.92
2019-05-20T14:26:36.265Z,25.85
2019-05-20T14:29:06.977Z,25.80
2019-05-20T14:31:38.501Z,25.82
2019-05-20T14:34:09.490Z,25.86
2019-05-20T14:36:40.598Z,25.81
2019-05-20T14:39:11.312Z,25.74
2019-05-20T14:41:43.448Z,25.78
2019-05-20T14:44:18.459Z,25.82
2019-05-20T14:46:49.784Z,25.79
2019-05-20T14:49:20.595Z,25.75
2019-05-20T14:51:55.923Z,25.75
2019-05-20T14:54:27.229Z,25.74
2019-05-20T14:57:02.370Z,25.75
2019-05-20T14:59:40.507Z,25.70
2019-05-20T15:02:11.589Z,25.66
2019-05-20T15:04:42.558Z,25.62
2019-05-20T15:07:13.201Z,25.62
2019-05-20T15:09:45.392Z,25.53
2019-05-20T15:12:19.767Z,25.50
2019-05-20T15:14:54.239Z,25.54
2019-05-20T15:17:26.598Z,25.56
2019-05-20T15:19:57.501Z,25.54
2019-05-20T15:22:29.204Z,25.61
2019-05-20T15:25:01.822Z,25.55
2019-05-20T15:27:34.768Z,25.49
2019-05-20T15:30:10.212Z,25.51
2019-05-20T15:32:40.969Z,25.39
2019-05-20T15:35:13.280Z,25.38
2019-05-20T15:37:43.885Z,25.28
2019-05-20T15:40:18.025Z,25.25
2019-05-20T15:42:48.596Z,25.15
2019-05-20T15:45:19.434Z,25.12
2019-05-20T15:47:50.678Z,25.07
2019-05-20T15:50:22.061Z,25.09
2019-05-20T15:52:52.721Z,25.06
2019-05-20T15:55:27.546Z,24.91
2019-05-20T15:57:58.444Z,24.91
2019-05-20T16:00:29.308Z,24.81
2019-05-20T16:02:59.948Z,24.81
2019-05-20T16:05:32.882Z,24.76
2019-05-20T16:08:04.148Z,24.66
2019-05-20T16:10:35.246Z,24.66
2019-05-20T16:13:05.869Z,24.49
2019-05-20T16:15:37.358Z,24.45
2019-05-20T16:18:08.386Z,24.40
2019-05-20T16:20:45.170Z,24.28
2019-05-20T16:23:16.006Z,24.22
2019-05-20T16:25:50.951Z,24.10
2019-05-20T16:28:24.451Z,24.03
2019-05-20T16:30:55.110Z,24.03
2019-05-20T16:33:26.075Z,23.97
2019-05-20T16:35:56.777Z,23.91
2019-05-20T16:38:31.149Z,23.79
2019-05-20T16:41:01.783Z,23.77
2019-05-20T16:43:32.380Z,23.67
2019-05-20T16:46:03.106Z,23.55
2019-05-20T16:48:37.279Z,23.50
2019-05-20T16:51:07.927Z,23.46
2019-05-20T16:53:40.122Z,23.41
2019-05-20T16:56:12.281Z,23.42
2019-05-20T16:58:43.231Z,23.34
2019-05-20T17:01:15.767Z,23.15
2019-05-20T17:03:46.719Z,23.07
2019-05-20T17:06:19.102Z,23.02
2019-05-20T17:08:56.210Z,22.95
2019-05-20T17:11:30.028Z,22.91
2019-05-20T17:14:00.861Z,22.88
2019-05-20T17:16:35.035Z,22.77
2019-05-20T17:19:06.697Z,22.72
2019-05-20T17:21:39.769Z,22.60
2019-05-20T17:24:12.639Z,22.48
2019-05-20T17:26:43.590Z,22.40
2019-05-20T17:29:16.494Z,22.33
2019-05-20T17:31:47.513Z,22.32
2019-05-20T17:34:18.507Z,22.34
2019-05-20T17:36:49.290Z,22.32
2019-05-20T17:39:19.974Z,22.14
2019-05-20T17:41:50.570Z,22.12
2019-05-20T17:44:21.498Z,22.12
2019-05-20T17:46:52.237Z,22.07
2019-05-20T17:49:22.871Z,22.06
2019-05-20T17:51:53.473Z,21.94
2019-05-20T17:54:25.231Z,21.85
2019-05-20T17:56:57.541Z,21.72
2019-05-20T17:59:31.612Z,21.77
2019-05-20T18:02:02.342Z,21.79
2019-05-20T18:04:33.591Z,21.75
2019-05-20T18:07:05.198Z,21.72
2019-05-20T18:09:39.460Z,21.82
2019-05-20T18:12:10.845Z,21.72
2019-05-20T18:14:42.543Z,21.66
2019-05-20T18:17:16.598Z,21.49
2019-05-20T18:19:48.952Z,21.42
2019-05-20T18:22:19.987Z,21.47
2019-05-20T18:24:52.199Z,21.39
2019-05-20T18:27:23.700Z,21.31
2019-05-20T18:29:56.290Z,21.31
2019-05-20T18:32:27.426Z,21.22
2019-05-20T18:34:58.372Z,21.15
2019-05-20T18:37:29.304Z,21.10
2019-05-20T18:40:12.783Z,21.00
2019-05-20T18:42:33.029Z,20.99
2019-05-20T18:45:06.414Z,20.96
2019-05-20T18:47:37.248Z,21.00
2019-05-20T18:50:09.385Z,21.09
2019-05-20T18:52:40.043Z,21.07
2019-05-20T18:55:11.433Z,20.95
2019-05-20T18:57:42.233Z,21.00
2019-05-20T19:00:14.221Z,21.07
2019-05-20T19:02:45.249Z,21.12
2019-05-20T19:05:17.373Z,21.06
2019-05-20T19:07:49.165Z,21.13
2019-05-20T19:10:20.419Z,21.04
2019-05-20T19:12:51.721Z,20.98
2019-05-20T19:15:23.000Z,20.85
2019-05-20T19:17:55.688Z,20.86
2019-05-20T19:20:26.862Z,20.84
2019-05-20T19:22:57.977Z,20.73
2019-05-20T19:25:37.309Z,20.67
2019-05-20T19:28:01.480Z,20.60
2019-05-20T19:30:32.530Z,20.44
2019-05-20T19:33:04.314Z,20.25
2019-05-20T19:35:35.020Z,20.20
2019-05-20T19:38:06.101Z,20.10
2019-05-20T19:40:36.907Z,19.97
2019-05-20T19:43:08.034Z,19.89
2019-05-20T19:45:39.280Z,19.87
2019-05-20T19:48:10.434Z,19.92
2019-05-20T19:50:41.320Z,19.90
2019-05-20T19:53:12.079Z,19.87
2019-05-20T19:55:44.169Z,19.97
2019-05-20T19:58:15.216Z,19.97
2019-05-20T20:00:46.261Z,19.98
2019-05-20T20:03:17.394Z,19.95
2019-05-20T20:05:48.537Z,19.81
2019-05-20T20:08:19.499Z,19.78
2019-05-20T20:10:50.513Z,19.70
2019-05-20T20:13:23.808Z,19.70
2019-05-20T20:15:54.945Z,19.83
2019-05-20T20:18:25.984Z,19.89
2019-05-20T20:20:57.145Z,19.88
2019-05-20T20:23:29.606Z,19.81
2019-05-20T20:26:02.365Z,19.83
2019-05-20T20:28:33.151Z,19.72
2019-05-20T20:31:04.163Z,19.68
2019-05-20T20:33:35.249Z,19.62
2019-05-20T20:36:06.459Z,19.67
2019-05-20T20:38:39.361Z,19.60
2019-05-20T20:41:10.260Z,19.57
2019-05-20T20:43:41.440Z,19.54
2019-05-20T20:46:12.355Z,19.61
2019-05-20T20:48:43.400Z,19.61
2019-05-20T20:51:14.447Z,19.67
2019-05-20T20:53:45.372Z,19.60
2019-05-20T20:56:24.594Z,19.53
2019-05-20T20:58:52.475Z,19.51
2019-05-20T21:01:23.772Z,19.49
2019-05-20T21:03:54.755Z,19.43
2019-05-20T21:06:29.649Z,19.46
2019-05-20T21:09:00.326Z,19.31
2019-05-20T21:11:31.578Z,19.30
2019-05-20T21:14:04.686Z,19.28
2019-05-20T21:16:37.645Z,19.27
2019-05-20T21:19:08.798Z,19.27
2019-05-20T21:21:39.730Z,19.20
2019-05-20T21:24:12.920Z,19.20
2019-05-20T21:26:44.574Z,19.12
2019-05-20T21:29:15.719Z,19.06
2019-05-20T21:31:46.898Z,18.99
2019-05-20T21:34:31.350Z,19.07
2019-05-20T21:37:02.555Z,19.08
2019-05-20T21:39:33.496Z,18.96
2019-05-20T21:42:04.544Z,18.88
2019-05-20T21:44:37.148Z,18.82
2019-05-20T21:47:08.151Z,18.79
2019-05-20T21:49:39.194Z,18.73
2019-05-20T21:52:10.800Z,18.71
2019-05-20T21:54:42.611Z,18.76
2019-05-20T21:57:18.711Z,18.76
2019-05-20T21:59:51.224Z,18.71
2019-05-20T22:02:26.689Z,18.67
2019-05-20T22:05:03.050Z,18.59
2019-05-20T22:07:35.682Z,18.60
2019-05-20T22:10:08.519Z,18.51
2019-05-20T22:12:42.428Z,18.61
2019-05-20T22:15:15.201Z,18.50
2019-05-20T22:17:47.479Z,18.50
2019-05-20T22:20:21.998Z,18.45
2019-05-20T22:23:06.760Z,18.44
2019-05-20T22:25:38.725Z,18.43
2019-05-20T22:28:12.744Z,18.48
2019-05-20T22:30:42.939Z,18.48
2019-05-20T22:33:17.480Z,18.39
2019-05-20T22:35:49.139Z,18.38
2019-05-20T22:38:21.817Z,18.34
2019-05-20T22:40:55.047Z,18.26
2019-05-20T22:43:25.746Z,18.27
2019-05-20T22:45:57.287Z,18.22
2019-05-20T22:48:29.662Z,18.17
2019-05-20T22:51:00.398Z,18.11
2019-05-20T22:53:31.613Z,18.00
2019-05-20T22:56:05.777Z,18.03
2019-05-20T22:58:38.626Z,17.95
2019-05-20T23:01:09.444Z,17.95
2019-05-20T23:03:54.355Z,17.95
2019-05-20T23:06:13.194Z,17.83
2019-05-20T23:08:44.058Z,17.85
2019-05-20T23:11:15.282Z,17.76
2019-05-20T23:13:50.513Z,17.70
2019-05-20T23:16:23.242Z,17.62
2019-05-20T23:18:54.358Z,17.52
2019-05-20T23:21:25.696Z,17.56
2019-05-20T23:23:56.829Z,17.55
2019-05-20T23:26:27.764Z,17.57
2019-05-20T23:28:58.951Z,17.61
2019-05-20T23:31:31.284Z,17.57
2019-05-20T23:34:12.919Z,17.44
2019-05-20T23:36:40.657Z,17.41
2019-05-20T23:39:11.843Z,17.37
2019-05-20T23:41:51.049Z,17.37
2019-05-20T23:44:22.070Z,17.30
2019-05-20T23:46:56.189Z,17.33
2019-05-20T23:49:27.008Z,17.34
2019-05-20T23:51:58.200Z,17.39
2019-05-20T23:54:30.858Z,17.38
2019-05-20T23:57:01.760Z,17.32
2019-05-20T23:59:32.911Z,17.38
